createdAt,value
2018-12-29T00:02:21.169Z,21.40
2018-12-29T00:04:47.497Z,21.43
2018-12-29T00:07:13.848Z,21.41
2018-12-29T00:09:40.177Z,21.39
2018-12-29T00:12:06.543Z,21.36
2018-12-29T00:14:32.865Z,21.37
2018-12-29T00:16:59.243Z,21.37
2018-12-29T00:19:25.570Z,21.38
2018-12-29T00:21:51.911Z,21.33
2018-12-29T00:24:18.237Z,21.35
2018-12-29T00:26:44.628Z,21.33
2018-12-29T00:29:10.973Z,21.34
2018-12-29T00:31:37.316Z,21.31
2018-12-29T00:34:03.685Z,21.32
2018-12-29T00:36:30.000Z,21.35
2018-12-29T00:38:56.359Z,21.32
2018-12-29T00:41:25.068Z,21.30
2018-12-29T00:43:51.397Z,21.31
2018-12-29T00:46:17.751Z,21.29
2018-12-29T00:48:44.125Z,21.31
2018-12-29T00:51:10.454Z,21.25
2018-12-29T00:53:36.798Z,21.33
2018-12-29T00:56:03.158Z,21.30
2018-12-29T00:58:29.487Z,21.31
2018-12-29T01:00:55.819Z,21.28
2018-12-29T01:03:22.155Z,21.26
2018-12-29T01:05:48.477Z,21.22
2018-12-29T01:08:14.810Z,21.22
2018-12-29T01:10:41.141Z,21.27
2018-12-29T01:13:07.494Z,21.23
2018-12-29T01:15:33.851Z,21.23
2018-12-29T01:18:00.216Z,21.25
2018-12-29T01:20:26.543Z,21.29
2018-12-29T01:22:52.870Z,21.25
2018-12-29T01:25:19.208Z,21.25
2018-12-29T01:27:45.550Z,21.23
2018-12-29T01:30:11.884Z,21.24
2018-12-29T01:32:38.213Z,21.25
2018-12-29T01:35:04.543Z,21.24
2018-12-29T01:37:30.956Z,21.22
2018-12-29T01:39:57.285Z,21.21
2018-12-29T01:42:23.622Z,21.16
2018-12-29T01:44:49.965Z,21.17
2018-12-29T01:47:16.353Z,21.17
2018-12-29T01:49:42.679Z,21.16
2018-12-29T01:52:09.011Z,21.16
2018-12-29T01:54:35.341Z,21.15
2018-12-29T01:57:01.690Z,21.13
2018-12-29T01:59:28.038Z,21.12
2018-12-29T02:01:54.477Z,21.10
2018-12-29T02:04:20.804Z,21.11
2018-12-29T02:06:47.130Z,21.11
2018-12-29T02:09:13.543Z,21.11
2018-12-29T02:11:39.864Z,21.08
2018-12-29T02:14:06.241Z,21.10
2018-12-29T02:16:32.571Z,21.10
2018-12-29T02:18:58.961Z,21.09
2018-12-29T02:21:25.291Z,21.11
2018-12-29T02:23:51.625Z,21.03
2018-12-29T02:26:18.055Z,21.09
2018-12-29T02:28:44.437Z,21.05
2018-12-29T02:31:10.766Z,21.08
2018-12-29T02:33:37.172Z,21.09
2018-12-29T02:36:03.503Z,21.13
2018-12-29T02:38:29.843Z,21.08
2018-12-29T02:40:56.221Z,21.07
2018-12-29T02:43:22.568Z,21.05
2018-12-29T02:45:48.994Z,21.08
2018-12-29T02:48:15.320Z,21.01
2018-12-29T02:50:41.793Z,21.07
2018-12-29T02:53:08.168Z,21.11
2018-12-29T02:55:34.533Z,21.03
2018-12-29T02:58:00.905Z,21.05
2018-12-29T03:00:27.237Z,21.00
2018-12-29T03:02:53.668Z,21.02
2018-12-29T03:05:20.003Z,21.01
2018-12-29T03:07:46.425Z,21.03
2018-12-29T03:10:12.763Z,21.02
2018-12-29T03:12:39.124Z,21.01
2018-12-29T03:15:05.475Z,21.00
2018-12-29T03:17:31.865Z,20.99
2018-12-29T03:19:58.228Z,20.93
2018-12-29T03:22:24.576Z,20.97
2018-12-29T03:24:50.926Z,20.95
2018-12-29T03:27:17.302Z,21.00
2018-12-29T03:29:43.638Z,21.00
2018-12-29T03:32:09.999Z,20.94
2018-12-29T03:34:36.406Z,20.93
2018-12-29T03:37:02.758Z,21.00
2018-12-29T03:39:29.157Z,20.98
2018-12-29T03:41:55.588Z,20.97
2018-12-29T03:44:21.945Z,20.94
2018-12-29T03:46:48.269Z,20.94
2018-12-29T03:49:14.585Z,20.91
2018-12-29T03:51:40.974Z,20.92
2018-12-29T03:54:07.346Z,20.93
2018-12-29T03:56:33.936Z,20.90
2018-12-29T03:59:00.260Z,20.97
2018-12-29T04:01:26.598Z,20.89
2018-12-29T04:03:53.009Z,20.95
2018-12-29T04:06:19.338Z,20.91
2018-12-29T04:08:45.710Z,20.93
2018-12-29T04:11:12.049Z,20.95
2018-12-29T04:13:38.482Z,20.85
2018-12-29T04:16:04.770Z,20.89
2018-12-29T04:18:31.085Z,20.84
2018-12-29T04:20:57.463Z,20.90
2018-12-29T04:23:23.785Z,20.88
2018-12-29T04:25:50.174Z,20.91
2018-12-29T04:28:16.507Z,20.88
2018-12-29T04:30:42.939Z,20.89
2018-12-29T04:33:09.284Z,20.87
2018-12-29T04:35:35.691Z,20.85
2018-12-29T04:38:02.072Z,20.84
2018-12-29T04:40:28.506Z,20.91
2018-12-29T04:42:54.792Z,20.88
2018-12-29T04:45:21.201Z,20.86
2018-12-29T04:47:47.538Z,20.81
2018-12-29T04:50:13.911Z,20.82
2018-12-29T04:52:40.240Z,20.82
2018-12-29T04:55:06.635Z,20.88
2018-12-29T04:57:33.020Z,20.83
2018-12-29T04:59:59.350Z,20.79
2018-12-29T05:02:25.735Z,20.79
2018-12-29T05:04:52.072Z,20.80
2018-12-29T05:07:18.454Z,20.80
2018-12-29T05:09:44.774Z,20.85
2018-12-29T05:12:11.169Z,20.83
2018-12-29T05:14:37.528Z,20.88
2018-12-29T05:17:04.002Z,20.79
2018-12-29T05:19:30.354Z,20.84
2018-12-29T05:21:56.691Z,20.80
2018-12-29T05:24:23.064Z,20.82
2018-12-29T05:26:49.481Z,20.81
2018-12-29T05:29:15.911Z,20.80
2018-12-29T05:31:42.190Z,20.81
2018-12-29T05:34:08.620Z,20.80
2018-12-29T05:36:34.970Z,20.75
2018-12-29T05:39:01.308Z,20.80
2018-12-29T05:41:27.684Z,20.77
2018-12-29T05:43:54.016Z,20.80
2018-12-29T05:46:20.776Z,20.78
2018-12-29T05:48:46.683Z,20.80
2018-12-29T05:51:13.015Z,20.76
2018-12-29T05:53:39.369Z,20.76
2018-12-29T05:56:05.736Z,20.76
2018-12-29T05:58:32.059Z,20.76
2018-12-29T06:00:58.549Z,20.73
2018-12-29T06:03:24.841Z,20.75
2018-12-29T06:05:51.173Z,20.73
2018-12-29T06:08:17.555Z,20.74
2018-12-29T06:10:43.937Z,20.70
2018-12-29T06:13:10.298Z,20.75
2018-12-29T06:15:36.684Z,20.80
2018-12-29T06:18:03.031Z,20.75
2018-12-29T06:20:29.408Z,20.77
2018-12-29T06:22:55.836Z,20.72
2018-12-29T06:25:22.159Z,20.77
2018-12-29T06:27:48.508Z,20.77
2018-12-29T06:30:14.880Z,20.80
2018-12-29T06:32:41.265Z,20.78
2018-12-29T06:35:07.591Z,20.74
2018-12-29T06:37:33.982Z,20.75
2018-12-29T06:40:00.341Z,20.73
2018-12-29T06:42:26.696Z,20.80
2018-12-29T06:44:53.017Z,20.75
2018-12-29T06:47:19.458Z,20.77
2018-12-29T06:49:45.764Z,20.77
2018-12-29T06:52:12.149Z,20.75
2018-12-29T06:54:38.513Z,20.76
2018-12-29T06:57:04.905Z,20.76
2018-12-29T06:59:31.316Z,20.76
2018-12-29T07:01:57.589Z,20.74
2018-12-29T07:04:23.973Z,20.75
2018-12-29T07:06:50.300Z,20.74
2018-12-29T07:09:16.637Z,20.75
2018-12-29T07:11:42.986Z,20.74
2018-12-29T07:14:09.363Z,20.74
2018-12-29T07:16:42.055Z,20.73
2018-12-29T07:19:02.096Z,20.73
2018-12-29T07:21:28.470Z,20.78
2018-12-29T07:23:54.762Z,20.75
2018-12-29T07:26:21.097Z,20.74
2018-12-29T07:28:47.435Z,20.71
2018-12-29T07:31:13.778Z,20.73
2018-12-29T07:33:40.106Z,20.78
2018-12-29T07:36:06.524Z,20.76
2018-12-29T07:38:32.853Z,20.76
2018-12-29T07:40:59.254Z,20.72
2018-12-29T07:43:25.545Z,20.73
2018-12-29T07:45:51.924Z,20.74
2018-12-29T07:48:18.270Z,20.75
2018-12-29T07:50:44.599Z,20.77
2018-12-29T07:53:10.926Z,20.79
2018-12-29T07:55:37.295Z,20.83
2018-12-29T07:58:05.930Z,20.78
2018-12-29T08:00:32.275Z,20.77
2018-12-29T08:02:58.659Z,20.76
2018-12-29T08:05:25.009Z,20.80
2018-12-29T08:07:51.394Z,20.80
2018-12-29T08:10:17.799Z,20.82
2018-12-29T08:12:44.243Z,20.80
2018-12-29T08:15:10.623Z,20.82
2018-12-29T08:17:37.093Z,20.83
2018-12-29T08:20:03.470Z,20.83
2018-12-29T08:22:29.810Z,20.80
2018-12-29T08:24:59.284Z,20.85
2018-12-29T08:27:25.647Z,20.85
2018-12-29T08:29:52.001Z,20.81
2018-12-29T08:32:18.358Z,20.78
2018-12-29T08:34:44.699Z,20.82
2018-12-29T08:37:11.084Z,20.81
2018-12-29T08:39:37.419Z,20.82
2018-12-29T08:42:03.744Z,20.84
2018-12-29T08:44:30.080Z,20.82
2018-12-29T08:46:56.515Z,20.83
2018-12-29T08:49:22.856Z,20.79
2018-12-29T08:51:49.301Z,20.80
2018-12-29T08:54:15.651Z,20.80
2018-12-29T08:56:42.079Z,20.85
2018-12-29T08:59:08.380Z,20.80
2018-12-29T09:01:34.753Z,20.81
2018-12-29T09:04:01.082Z,20.85
2018-12-29T09:06:27.591Z,20.80
2018-12-29T09:08:53.980Z,20.78
2018-12-29T09:11:20.383Z,20.82
2018-12-29T09:13:46.760Z,20.84
2018-12-29T09:16:13.091Z,20.83
2018-12-29T09:18:39.477Z,20.81
2018-12-29T09:21:05.958Z,20.77
2018-12-29T09:23:32.292Z,20.82
2018-12-29T09:25:58.748Z,20.87
2018-12-29T09:28:25.080Z,20.86
2018-12-29T09:30:51.408Z,20.85
2018-12-29T09:33:17.804Z,20.83
2018-12-29T09:35:44.172Z,20.81
2018-12-29T09:38:10.590Z,20.84
2018-12-29T09:40:36.886Z,20.81
2018-12-29T09:43:03.250Z,20.83
2018-12-29T09:45:29.596Z,20.85
2018-12-29T09:47:55.941Z,20.83
2018-12-29T09:50:22.329Z,20.77
2018-12-29T09:52:48.727Z,20.76
2018-12-29T09:55:15.063Z,20.80
2018-12-29T09:57:41.404Z,20.82
2018-12-29T10:00:07.742Z,20.83
2018-12-29T10:02:34.082Z,20.86
2018-12-29T10:05:00.418Z,20.82
2018-12-29T10:07:26.835Z,20.86
2018-12-29T10:09:53.180Z,20.82
2018-12-29T10:12:19.479Z,20.85
2018-12-29T10:14:45.817Z,20.84
2018-12-29T10:17:12.193Z,20.88
2018-12-29T10:19:38.523Z,20.83
2018-12-29T10:22:04.885Z,20.87
2018-12-29T10:24:31.268Z,20.86
2018-12-29T10:26:57.664Z,20.87
2018-12-29T10:29:24.019Z,20.89
2018-12-29T10:31:50.392Z,20.85
2018-12-29T10:34:16.766Z,20.87
2018-12-29T10:36:43.063Z,20.87
2018-12-29T10:39:09.392Z,20.89
2018-12-29T10:41:35.792Z,20.85
2018-12-29T10:44:02.132Z,20.92
2018-12-29T10:46:28.513Z,20.91
2018-12-29T10:48:54.874Z,20.90
2018-12-29T10:51:21.207Z,20.90
2018-12-29T10:53:47.544Z,20.88
2018-12-29T10:56:13.938Z,20.86
2018-12-29T10:58:40.312Z,20.89
2018-12-29T11:01:06.694Z,20.94
2018-12-29T11:03:33.027Z,20.88
2018-12-29T11:05:59.354Z,20.90
2018-12-29T11:08:25.703Z,20.91
2018-12-29T11:10:52.036Z,20.90
2018-12-29T11:13:18.445Z,20.91
2018-12-29T11:15:44.781Z,20.94
2018-12-29T11:18:11.112Z,20.94
2018-12-29T11:20:37.444Z,20.92
2018-12-29T11:23:03.839Z,20.88
2018-12-29T11:25:30.196Z,20.91
2018-12-29T11:27:56.611Z,20.88
2018-12-29T11:30:22.931Z,20.86
2018-12-29T11:32:49.361Z,20.90
2018-12-29T11:35:15.704Z,20.89
2018-12-29T11:37:42.082Z,20.86
2018-12-29T11:40:08.413Z,20.86
2018-12-29T11:42:34.755Z,20.86
2018-12-29T11:45:01.086Z,20.87
2018-12-29T11:47:27.474Z,20.87
2018-12-29T11:49:53.813Z,20.85
2018-12-29T11:52:20.147Z,20.84
2018-12-29T11:54:46.520Z,20.79
2018-12-29T11:57:12.912Z,20.80
2018-12-29T11:59:39.243Z,20.83
2018-12-29T12:02:06.800Z,20.85
2018-12-29T12:04:31.922Z,20.80
2018-12-29T12:06:58.306Z,20.79
2018-12-29T12:09:24.717Z,20.78
2018-12-29T12:11:51.097Z,20.76
2018-12-29T12:14:17.443Z,20.76
2018-12-29T12:16:43.790Z,20.79
2018-12-29T12:19:10.236Z,20.82
2018-12-29T12:21:36.577Z,20.79
2018-12-29T12:24:02.960Z,20.76
2018-12-29T12:26:29.251Z,20.79
2018-12-29T12:28:55.765Z,20.78
2018-12-29T12:31:22.098Z,20.81
2018-12-29T12:33:48.522Z,20.80
2018-12-29T12:36:14.857Z,20.81
2018-12-29T12:38:41.242Z,20.83
2018-12-29T12:41:07.606Z,20.82
2018-12-29T12:43:33.963Z,20.78
2018-12-29T12:46:00.269Z,20.76
2018-12-29T12:48:26.608Z,20.77
2018-12-29T12:50:52.989Z,20.80
2018-12-29T12:53:19.390Z,20.77
2018-12-29T12:55:45.730Z,20.79
2018-12-29T12:58:12.069Z,20.83
2018-12-29T13:00:38.449Z,20.78
2018-12-29T13:03:04.781Z,20.78
2018-12-29T13:05:31.144Z,20.78
2018-12-29T13:07:57.480Z,20.78
2018-12-29T13:10:23.799Z,20.78
2018-12-29T13:12:50.133Z,20.78
2018-12-29T13:15:16.462Z,20.78
2018-12-29T13:17:42.837Z,20.74
2018-12-29T13:20:09.198Z,20.77
2018-12-29T13:22:35.553Z,20.78
2018-12-29T13:25:01.890Z,20.79
2018-12-29T13:27:28.257Z,20.73
2018-12-29T13:29:54.592Z,20.73
2018-12-29T13:32:20.993Z,20.73
2018-12-29T13:34:47.325Z,20.75
2018-12-29T13:37:13.657Z,20.74
2018-12-29T13:39:39.978Z,20.75
2018-12-29T13:42:06.311Z,20.74
2018-12-29T13:44:32.668Z,20.68
2018-12-29T13:46:59.064Z,20.74
2018-12-29T13:49:25.494Z,20.70
2018-12-29T13:51:51.803Z,20.72
2018-12-29T13:54:18.184Z,20.78
2018-12-29T13:56:44.547Z,20.72
2018-12-29T13:59:10.949Z,20.67
2018-12-29T14:01:37.282Z,20.67
2018-12-29T14:04:03.671Z,20.67
2018-12-29T14:06:30.001Z,20.66
2018-12-29T14:08:56.328Z,20.75
2018-12-29T14:11:22.662Z,20.69
2018-12-29T14:13:48.987Z,20.69
2018-12-29T14:16:15.360Z,20.73
2018-12-29T14:18:41.751Z,20.67
2018-12-29T14:21:08.095Z,20.68
2018-12-29T14:23:34.492Z,20.73
2018-12-29T14:26:00.850Z,20.69
2018-12-29T14:28:27.184Z,20.68
2018-12-29T14:30:53.517Z,20.69
2018-12-29T14:33:19.908Z,20.63
2018-12-29T14:35:46.290Z,20.64
2018-12-29T14:38:12.647Z,20.64
2018-12-29T14:40:39.002Z,20.69
2018-12-29T14:43:05.333Z,20.63
2018-12-29T14:45:31.728Z,20.62
2018-12-29T14:47:58.113Z,20.62
2018-12-29T14:50:24.430Z,20.62
2018-12-29T14:52:50.797Z,20.61
2018-12-29T14:55:17.163Z,20.61
2018-12-29T14:57:43.556Z,20.62
2018-12-29T15:00:09.907Z,20.59
2018-12-29T15:02:36.322Z,20.63
2018-12-29T15:05:02.662Z,20.61
2018-12-29T15:07:29.185Z,20.59
2018-12-29T15:09:55.570Z,20.61
2018-12-29T15:12:21.847Z,20.62
2018-12-29T15:14:48.182Z,20.64
2018-12-29T15:17:14.586Z,20.59
2018-12-29T15:19:40.933Z,20.57
2018-12-29T15:22:07.324Z,20.56
2018-12-29T15:24:33.727Z,20.57
2018-12-29T15:27:00.072Z,20.58
2018-12-29T15:29:26.399Z,20.63
2018-12-29T15:31:52.728Z,20.57
2018-12-29T15:34:19.134Z,20.60
2018-12-29T15:36:45.490Z,20.60
2018-12-29T15:39:11.852Z,20.57
2018-12-29T15:41:38.239Z,20.58
2018-12-29T15:44:04.639Z,20.62
2018-12-29T15:46:30.979Z,20.59
2018-12-29T15:48:57.322Z,20.58
2018-12-29T15:51:23.655Z,20.55
2018-12-29T15:53:50.004Z,20.54
2018-12-29T15:56:16.459Z,20.53
2018-12-29T15:58:42.878Z,20.57
2018-12-29T16:01:09.179Z,20.56
2018-12-29T16:03:35.509Z,20.57
2018-12-29T16:06:01.911Z,20.53
2018-12-29T16:08:28.238Z,20.52
2018-12-29T16:10:54.621Z,20.49
2018-12-29T16:13:20.915Z,20.48
2018-12-29T16:15:47.334Z,20.55
2018-12-29T16:18:13.660Z,20.51
2018-12-29T16:20:40.032Z,20.51
2018-12-29T16:23:06.336Z,20.60
2018-12-29T16:25:32.711Z,20.54
2018-12-29T16:27:59.049Z,20.54
2018-12-29T16:30:25.389Z,20.56
2018-12-29T16:32:51.739Z,20.54
2018-12-29T16:35:18.093Z,20.57
2018-12-29T16:37:44.434Z,20.60
2018-12-29T16:40:10.766Z,20.51
2018-12-29T16:42:37.162Z,20.54
2018-12-29T16:45:03.514Z,20.52
2018-12-29T16:47:29.827Z,20.52
2018-12-29T16:49:56.166Z,20.52
2018-12-29T16:52:22.526Z,20.55
2018-12-29T16:54:48.886Z,20.50
2018-12-29T16:57:15.298Z,20.50
2018-12-29T16:59:41.611Z,20.50
2018-12-29T17:02:07.939Z,20.58
2018-12-29T17:04:34.280Z,20.55
2018-12-29T17:07:00.610Z,20.48
2018-12-29T17:09:26.941Z,20.60
2018-12-29T17:11:53.310Z,20.54
2018-12-29T17:14:19.639Z,20.46
2018-12-29T17:16:46.007Z,20.51
2018-12-29T17:19:14.863Z,20.48
2018-12-29T17:21:38.700Z,20.45
2018-12-29T17:24:05.042Z,20.49
2018-12-29T17:26:31.369Z,20.47
2018-12-29T17:28:57.763Z,20.47
2018-12-29T17:31:24.106Z,20.45
2018-12-29T17:33:50.437Z,20.49
2018-12-29T17:36:16.815Z,20.46
2018-12-29T17:38:43.277Z,20.45
2018-12-29T17:41:11.261Z,20.51
2018-12-29T17:43:35.937Z,20.48
2018-12-29T17:46:02.350Z,20.41
2018-12-29T17:48:28.676Z,20.49
2018-12-29T17:50:55.036Z,20.45
2018-12-29T17:53:21.371Z,20.45
2018-12-29T17:55:47.716Z,20.48
2018-12-29T17:58:14.051Z,20.49
2018-12-29T18:00:40.396Z,20.51
2018-12-29T18:03:06.735Z,20.49
2018-12-29T18:05:33.126Z,20.46
2018-12-29T18:07:59.416Z,20.44
2018-12-29T18:10:25.794Z,20.42
2018-12-29T18:12:52.212Z,20.49
2018-12-29T18:15:18.748Z,20.46
2018-12-29T18:17:45.139Z,20.48
2018-12-29T18:20:11.433Z,20.43
2018-12-29T18:22:37.982Z,20.45
2018-12-29T18:25:04.287Z,20.43
2018-12-29T18:27:30.680Z,20.41
2018-12-29T18:29:56.982Z,20.46
2018-12-29T18:32:23.373Z,20.41
2018-12-29T18:34:49.707Z,20.45
2018-12-29T18:37:16.047Z,20.45
2018-12-29T18:39:42.424Z,20.44
2018-12-29T18:42:08.766Z,20.43
2018-12-29T18:44:35.142Z,20.46
2018-12-29T18:47:01.525Z,20.50
2018-12-29T18:49:27.827Z,20.44
2018-12-29T18:51:54.153Z,20.40
2018-12-29T18:54:20.511Z,20.41
2018-12-29T18:56:46.846Z,20.43
2018-12-29T18:59:13.168Z,20.47
2018-12-29T19:01:39.533Z,20.41
2018-12-29T19:04:05.858Z,20.47
2018-12-29T19:06:32.227Z,20.46
2018-12-29T19:08:58.531Z,20.47
2018-12-29T19:11:24.867Z,20.41
2018-12-29T19:13:51.317Z,20.44
2018-12-29T19:16:17.543Z,20.43
2018-12-29T19:18:43.882Z,20.45
2018-12-29T19:21:10.264Z,20.43
2018-12-29T19:23:36.598Z,20.40
2018-12-29T19:26:03.045Z,20.41
2018-12-29T19:28:29.397Z,20.41
2018-12-29T19:30:55.663Z,20.38
2018-12-29T19:33:22.071Z,20.45
2018-12-29T19:35:48.401Z,20.42
2018-12-29T19:38:14.786Z,20.41
2018-12-29T19:40:41.111Z,20.35
2018-12-29T19:43:07.487Z,20.35
2018-12-29T19:45:33.818Z,20.41
2018-12-29T19:48:00.197Z,20.38
2018-12-29T19:50:26.519Z,20.40
2018-12-29T19:52:52.905Z,20.42
2018-12-29T19:55:19.280Z,20.39
2018-12-29T19:57:45.704Z,20.37
2018-12-29T20:00:12.041Z,20.39
2018-12-29T20:02:38.417Z,20.38
2018-12-29T20:05:04.745Z,20.33
2018-12-29T20:07:31.130Z,20.38
2018-12-29T20:09:57.471Z,20.42
2018-12-29T20:12:23.844Z,20.38
2018-12-29T20:14:50.244Z,20.42
2018-12-29T20:17:16.644Z,20.32
2018-12-29T20:19:43.052Z,20.35
2018-12-29T20:22:09.384Z,20.33
2018-12-29T20:24:35.777Z,20.34
2018-12-29T20:27:02.109Z,20.41
2018-12-29T20:29:28.482Z,20.38
2018-12-29T20:31:54.830Z,20.35
2018-12-29T20:34:21.168Z,20.34
2018-12-29T20:36:47.554Z,20.37
2018-12-29T20:39:13.892Z,20.31
2018-12-29T20:41:40.268Z,20.33
2018-12-29T20:44:06.597Z,20.37
2018-12-29T20:46:33.026Z,20.36
2018-12-29T20:48:59.464Z,20.30
2018-12-29T20:51:25.795Z,20.37
2018-12-29T20:53:52.128Z,20.32
2018-12-29T20:56:18.527Z,20.30
2018-12-29T20:58:44.862Z,20.31
2018-12-29T21:01:11.188Z,20.39
2018-12-29T21:03:37.590Z,20.37
2018-12-29T21:06:03.929Z,20.33
2018-12-29T21:08:30.305Z,20.36
2018-12-29T21:10:56.643Z,20.37
2018-12-29T21:13:22.975Z,20.37
2018-12-29T21:15:49.366Z,20.34
2018-12-29T21:18:15.706Z,20.40
2018-12-29T21:20:42.034Z,20.35
2018-12-29T21:23:08.453Z,20.39
2018-12-29T21:25:34.846Z,20.38
2018-12-29T21:28:01.215Z,20.35
2018-12-29T21:30:27.529Z,20.33
2018-12-29T21:32:53.923Z,20.35
2018-12-29T21:35:20.289Z,20.37
2018-12-29T21:37:46.648Z,20.35
2018-12-29T21:40:13.019Z,20.31
2018-12-29T21:42:39.341Z,20.35
2018-12-29T21:45:05.708Z,20.38
2018-12-29T21:47:32.046Z,20.34
2018-12-29T21:49:58.385Z,20.36
2018-12-29T21:52:24.793Z,20.35
2018-12-29T21:54:51.121Z,20.30
2018-12-29T21:57:17.525Z,20.28
2018-12-29T21:59:43.855Z,20.30
2018-12-29T22:02:10.219Z,20.29
2018-12-29T22:04:36.556Z,20.29
2018-12-29T22:07:02.950Z,20.33
2018-12-29T22:09:29.291Z,20.31
2018-12-29T22:11:55.713Z,20.32
2018-12-29T22:14:22.057Z,20.33
2018-12-29T22:16:48.436Z,20.31
2018-12-29T22:19:14.790Z,20.30
2018-12-29T22:21:41.171Z,20.30
2018-12-29T22:24:07.502Z,20.35
2018-12-29T22:26:33.986Z,20.35
2018-12-29T22:29:00.324Z,20.40
2018-12-29T22:31:26.650Z,20.33
2018-12-29T22:33:52.969Z,20.29
2018-12-29T22:36:19.375Z,20.34
2018-12-29T22:38:45.711Z,20.35
2018-12-29T22:41:12.106Z,20.31
2018-12-29T22:43:38.537Z,20.30
2018-12-29T22:46:05.013Z,20.36
2018-12-29T22:48:31.429Z,20.32
2018-12-29T22:50:57.781Z,20.31
2018-12-29T22:53:24.192Z,20.30
2018-12-29T22:55:50.523Z,20.28
2018-12-29T22:58:16.890Z,20.32
2018-12-29T23:00:43.242Z,20.30
2018-12-29T23:03:09.574Z,20.29
2018-12-29T23:05:36.007Z,20.28
2018-12-29T23:08:02.273Z,20.25
2018-12-29T23:10:28.681Z,20.24
2018-12-29T23:12:55.011Z,20.26
2018-12-29T23:15:21.385Z,20.25
2018-12-29T23:17:47.750Z,20.25
2018-12-29T23:20:14.096Z,20.31
2018-12-29T23:22:40.480Z,20.28
2018-12-29T23:25:06.816Z,20.28
2018-12-29T23:27:33.150Z,20.24
2018-12-29T23:30:00.627Z,20.22
2018-12-29T23:32:25.859Z,20.25
2018-12-29T23:34:52.244Z,20.29
2018-12-29T23:37:18.584Z,20.34
2018-12-29T23:39:47.627Z,20.32
2018-12-29T23:42:14.007Z,20.24
2018-12-29T23:44:40.397Z,20.31
2018-12-29T23:47:06.737Z,20.30
2018-12-29T23:49:33.145Z,20.28
2018-12-29T23:51:59.492Z,20.26
2018-12-29T23:54:25.866Z,20.34
2018-12-29T23:56:52.199Z,20.31
2018-12-29T23:59:18.652Z,20.23
